Sponsor Message:
Civil Aviation Forum
My Starred Topics | Profile | New Topic | Forum Index | Help | Search 
Small Plane Down In Iowa  
User currently offlineRamblinMan From United States of America, joined Oct 2010, 1138 posts, RR: 1
Posted (1 year 7 months 3 weeks 2 days 14 hours ago) and read 1728 times:

http://www.lemarssentinel.com/story/1918787.html

A friend from another internet forum I use just lost his father. Pilot reportedly survived. Anybody with any idea what happened?

2 replies: All unread, jump to last
 
User currently onlinerfields5421 From United States of America, joined Jul 2007, 7569 posts, RR: 32
Reply 1, posted (1 year 7 months 3 weeks 2 days 7 hours ago) and read 1546 times:

This is all I can find

http://www.kcci.com/news/central-iow...80/17624810/-/d1vwv3z/-/index.html

Looking at Hwy 31 on Google Earth, There appears to be a small 2,000 ft grass runway parallel to the highway a bit south of Correctionville.

[Edited 2012-12-02 05:42:23]

User currently offlinenjxc500 From United States of America, joined Dec 2007, 240 posts, RR: 0
Reply 2, posted (1 year 7 months 3 weeks 2 days 4 hours ago) and read 1364 times:

RIP to the deceased and condolences to the families.

The weather in our area last night got foggy very quickly. The weather nearby at the time is below, approx 0200.

According to WOWT news, there was dense fog in the area at the time of the crash. It was also reported that an ambulance collided with another emergency vehicle during the response.


KSUX 020257Z 00000KT 1 1/4SM R31/1000VP6000FT BR SCT003 01/01 A2983 RMK AO2
KSUX 020252Z 00000KT 5SM BR SCT003 02/02 A2983 RMK AO2 SLP109 T00220017 53012
KSUX 020236Z 00000KT 5SM BR FEW003 02/01 A2983 RMK AO2
KSUX 020227Z AUTO 00000KT 1 1/2SM R31/1800VP6000FT BR CLR 03/01 A2983 RMK AO2 TSNO
KSUX 020152Z AUTO 05003KT 6SM BR CLR 04/03 A2982 RMK AO2 SLP103 T00390028 TSNO
KSUX 020052Z 12003KT 7SM CLR 04/03 A2981 RMK AO2 SLP101 T00440028

KCKP 020255Z AUTO 00000KT 1/4SM FG OVC001 06/04 A2983 RMK AO2 T00560035
KCKP 020235Z AUTO 00000KT M1/4SM FG OVC001 05/03 A2983 RMK AO2 T00490028
KCKP 020215Z AUTO 00000KT M1/4SM FG OVC001 05/03 A2983 RMK AO2 T00530031
KCKP 020155Z AUTO 00000KT 1/4SM FG OVC001 06/04 A2982 RMK AO2 T00570035
KCKP 020135Z AUTO 00000KT M1/4SM FG OVC001 05/03 A2982 RMK AO2 T00540032
KCKP 020115Z AUTO 00000KT 1/4SM FG VV002 06/04 A2981 RMK AO2 T00630041
KCKP 020055Z AUTO 00000KT 1/4SM FG VV002 07/04 A2981 RMK AO2 T00650042

KDNS 020355Z AUTO 00000KT M1/4SM FG OVC004 08/08 A2984 RMK AO2
KDNS 020335Z AUTO 00000KT 1 3/4SM BR FEW004 BKN013 BKN017 10/10 A2983 RMK AO2
KDNS 020315Z AUTO 22003KT 2 1/2SM BR OVC013 11/10 A2982 RMK AO2
KDNS 020255Z AUTO 00000KT 2 1/2SM BR OVC012 10/10 A2982 RMK AO2
KDNS 020235Z AUTO 00000KT 3SM BR OVC010 10/10 A2982 RMK AO2
KDNS 020215Z AUTO 00000KT 3SM BR OVC011 11/10 A2982 RMK AO2


Top Of Page
Forum Index

This topic is archived and can not be replied to any more.

Printer friendly format

Similar topics:More similar topics...
Small Plane Down In NJ Parking Lot posted Tue Aug 25 2009 09:47:16 by PlateMan
Small Plane Down In Richmond, BC posted Fri Oct 19 2007 16:33:45 by B747_A340
Small Plane Down In SW PDX posted Fri Jun 15 2007 19:30:15 by KELPkid
Small Plane Down In Florida posted Sun Jun 10 2007 15:36:27 by Solnabo
Small Plane Down In Saint Petersburg. FL posted Fri May 18 2007 02:59:00 by TPAnx
Small Plane Down In Oregon posted Sun Dec 31 2006 02:24:16 by STLGph
Small Plane Down In St. Louis Area, 5 Dead posted Sat Jul 29 2006 23:35:30 by Boeing Nut
Small Plane Down In Detroit posted Mon Nov 8 2004 23:21:14 by Redngold
Small Charter Plane Down In Alaska posted Sat Dec 16 2006 00:55:55 by Bushpilot
Small Plane Crash In Jackson MS. posted Wed Nov 14 2012 07:18:32 by kkephart13
Small Charter Plane Down In Alaska posted Sat Dec 16 2006 00:55:55 by Bushpilot